Latest Weather Observations for Centre Island

IDD60801

Issued at 4:01 pm CST Friday 3 December 2021 (issued every 10 minutes, with the page automatically refreshed every 10 minutes)

About weather observations | Map of weather stations | Latest weather observations for NT | Other Formats
Station Details ID: 014703 Name: CENTRE ISLAND Lat: -15.74 Lon: 136.82 Height: 12.2 m
Data from the previous 72 hours. | See also: Recent months at Centre Island
Date/Time
CST
Temp
°C
App
Temp
°C
Dew
Point
°C
Rel
Hum
%
Delta-T
°C
Wind Press
QNH
hPa
Press
MSL
hPa
Rain since
9am
mm
Dir  Spd
km/h
Gust
km/h
Spd
kts
Gust
kts
03/04:00pm 32.5 34.8 25.1 65 5.2 NE 22 28 12 15 1006.7 1006.6 0.0
03/03:30pm 33.7 36.7 26.2 65 5.4 NNE 22 28 12 15 1006.8 1006.7 0.0
03/03:00pm 33.7 36.8 25.7 63 5.7 NE 20 26 11 14 1007.4 1007.3 0.0
03/02:30pm 33.5 36.8 26.0 65 5.4 NE 20 26 11 14 1007.7 1007.6 0.0
03/02:00pm 33.9 37.1 25.9 63 5.7 NNE 20 26 11 14 1008.1 1008.0 0.0
03/01:30pm 34.1 36.5 25.8 62 5.9 NE 24 28 13 15 1008.5 1008.4 0.0
03/01:00pm 34.0 36.1 25.4 61 6.1 NE 24 30 13 16 1008.8 1008.7 0.0
03/12:30pm 33.4 37.7 26.7 68 4.8 NE 17 20 9 11 1009.3 1009.2 0.0
03/12:00pm 32.8 37.7 26.4 69 4.6 NE 13 17 7 9 1009.6 1009.5 0.0
03/11:30am 32.7 37.1 26.3 69 4.6 NE 15 17 8 9 1009.7 1009.6 0.0
03/11:00am 33.1 37.6 26.4 68 4.8 NE 15 19 8 10 1009.9 1009.8 0.0
03/10:30am 33.2 36.6 25.2 63 5.7 NE 17 20 9 11 1010.1 1010.0 0.0
03/10:00am 33.9 38.3 25.6 62 5.9 NE 13 17 7 9 1010.2 1010.1 0.0
03/09:30am 33.2 38.3 26.7 68 4.7 NE 13 17 7 9 1010.4 1010.3 0.0
03/09:00am 32.3 37.6 25.9 69 4.6 NNE 9 11 5 6 1010.4 1010.3 0.0
03/08:30am 31.9 37.1 25.7 69 4.4 NNE 9 15 5 8 1010.2 1010.1 0.0
03/08:00am 31.9 37.3 26.0 71 4.2 NNW 9 13 5 7 1010.0 1009.9 0.0
03/07:30am 30.7 36.5 25.8 75 3.5 WNW 6 9 3 5 1009.8 1009.7 0.0
03/07:00am 30.0 36.0 26.0 79 2.8 WNW 6 7 3 4 1009.3 1009.2 0.0
03/06:30am 29.2 36.4 26.2 84 2.1 CALM 0 0 0 0 1008.9 1008.8 0.0
03/06:00am 28.7 36.0 26.3 87 1.7 CALM 0 0 0 0 1008.4 1008.3 0.0
03/05:30am 28.6 35.8 26.2 87 1.7 CALM 0 0 0 0 1008.0 1007.9 0.0
03/05:00am 28.7 35.9 26.1 86 1.8 CALM 0 6 0 3 1007.5 1007.4 0.0
03/04:30am 28.7 34.6 25.9 85 2.0 WNW 6 7 3 4 1007.3 1007.2 0.0
03/04:00am 28.7 34.4 25.9 85 2.0 NW 7 7 4 4 1006.9 1006.8 0.0
03/03:30am 28.7 34.4 25.9 85 2.0 WNW 7 9 4 5 1006.7 1006.6 0.0
03/03:00am 28.8 34.6 26.0 85 2.0 WNW 7 9 4 5 1006.7 1006.6 0.0
03/02:30am 29.1 34.9 26.1 84 2.1 NW 7 7 4 4 1007.0 1006.9 0.0
03/02:00am 29.2 35.0 26.0 83 2.3 NNW 7 11 4 6 1007.2 1007.1 0.0
03/01:30am 29.5 35.0 26.1 82 2.4 NNW 9 13 5 7 1007.7 1007.6 0.0
03/01:00am 29.6 34.7 26.2 82 2.4 N 11 13 6 7 1007.9 1007.8 0.0
03/12:30am 29.7 34.8 26.1 81 2.6 N 11 19 6 10 1008.1 1008.0 0.0
03/12:00am 29.8 34.6 26.2 81 2.6 N 13 17 7 9 1008.3 1008.2 0.0
 
Date/Time
CST
Temp
°C
App
Temp
°C
Dew
Point
°C
Rel
Hum
%
Delta-T
°C
Wind Press
QNH
hPa
Press
MSL
hPa
Rain since
9am
mm
Dir  Spd
km/h
Gust
km/h
Spd
kts
Gust
kts
02/11:30pm 29.8 34.9 26.2 81 2.6 N 11 15 6 8 1008.6 1008.5 0.0
02/11:00pm 30.1 34.8 26.1 79 2.8 N 13 19 7 10 1008.9 1008.8 0.0
02/10:30pm 30.3 34.5 26.0 78 3.1 N 15 20 8 11 1009.1 1009.0 0.0
02/10:00pm 30.4 34.5 26.3 79 2.9 N 17 22 9 12 1009.2 1009.1 0.0
02/09:30pm 30.2 33.6 25.9 78 3.1 N 19 24 10 13 1009.1 1009.0 0.0
02/09:00pm 30.4 34.1 26.3 79 2.9 N 19 24 10 13 1008.8 1008.7 0.0
02/08:30pm 30.5 34.3 26.7 80 2.7 N 20 30 11 16 1008.4 1008.3 0.0
02/08:00pm 30.4 33.4 26.1 78 3.1 N 22 28 12 15 1007.8 1007.7 0.0
02/07:30pm 30.5 33.2 25.6 75 3.5 NNE 22 28 12 15 1007.6 1007.5 0.0
02/07:00pm 30.7 32.8 25.3 73 3.8 NNE 24 30 13 16 1007.2 1007.1 0.0
02/06:30pm 31.0 32.2 25.1 71 4.2 NNE 28 33 15 18 1006.9 1006.8 0.0
02/06:00pm 31.4 33.6 26.0 73 3.9 NNE 26 32 14 17 1006.8 1006.7 0.0
02/05:30pm 31.7 33.3 25.8 71 4.2 NNE 28 35 15 19 1006.7 1006.6 0.0
02/05:00pm 32.2 33.7 25.5 67 4.8 NNE 28 35 15 19 1006.4 1006.3 0.0
02/04:30pm 32.2 33.5 25.3 67 4.9 NNE 28 33 15 18 1006.3 1006.2 0.0
02/04:00pm 32.5 33.4 25.3 66 5.1 NNE 30 37 16 20 1006.4 1006.3 0.0
02/03:30pm 33.2 34.4 25.7 64 5.4 NE 30 37 16 20 1006.5 1006.4 0.0
02/03:00pm 33.4 34.8 25.4 63 5.7 NNE 28 35 15 19 1006.5 1006.4 0.0
02/02:30pm 33.4 35.3 26.2 66 5.2 NE 28 35 15 19 1006.8 1006.7 0.0
02/02:00pm 33.5 34.4 25.2 62 5.9 NE 30 37 16 20 1007.0 1006.9 0.0
02/01:30pm 34.4 35.9 24.9 57 6.7 NE 26 32 14 17 1007.3 1007.2 0.0
02/01:00pm 35.1 37.2 24.1 53 7.7 NNE 20 28 11 15 1007.6 1007.5 0.0
02/12:30pm 35.8 38.7 24.4 51 8.1 NE 17 24 9 13 1008.0 1007.9 0.0
02/12:00pm 34.2 37.5 23.9 55 7.2 NE 13 17 7 9 1008.2 1008.1 0.0
02/11:30am 33.6 38.0 24.5 59 6.4 ESE 9 13 5 7 1008.6 1008.5 0.0
02/11:00am 33.1 37.4 24.3 60 6.2 ENE 9 11 5 6 1008.9 1008.8 0.0
02/10:30am 32.0 36.9 25.3 67 4.8 SE 9 11 5 6 1009.0 1008.9 0.0
02/10:00am 32.1 37.1 25.4 67 4.8 SSW 9 15 5 8 1008.8 1008.7 0.0
02/09:30am 31.9 36.3 25.7 69 4.4 SSW 13 15 7 8 1009.0 1008.9 0.0
02/09:00am 32.0 37.5 26.1 71 4.2 SW 9 13 5 7 1009.3 1009.2 0.0
02/08:30am 31.2 36.1 25.8 73 3.8 SW 11 15 6 8 1009.2 1009.1 0.0
02/08:00am 30.2 34.6 25.7 77 3.2 WSW 13 17 7 9 1009.0 1008.9 0.0
02/07:30am 29.9 34.8 25.9 79 2.8 WSW 11 13 6 7 1008.6 1008.5 0.0
02/07:00am 29.2 34.5 25.8 82 2.4 SW 9 15 5 8 1008.3 1008.2 0.0
02/06:30am 28.9 33.7 26.3 86 1.9 SSW 13 17 7 9 1007.9 1007.8 0.0
02/06:00am 28.6 33.4 26.2 87 1.7 SSW 13 17 7 9 1007.4 1007.3 0.0
02/05:30am 28.2 33.8 25.8 87 1.7 WNW 7 9 4 5 1006.8 1006.7 0.0
02/05:00am 28.5 33.6 26.1 87 1.7 W 11 13 6 7 1006.4 1006.3 0.0
02/04:30am 28.6 33.6 26.0 86 1.8 W 11 13 6 7 1006.1 1006.0 0.0
02/04:00am 28.6 33.1 25.8 85 2.0 WSW 13 15 7 8 1006.2 1006.1 0.0
02/03:30am 28.2 33.9 25.6 86 1.8 NW 6 7 3 4 1006.1 1006.0 0.0
02/03:00am 28.1 33.5 25.5 86 1.8 NW 7 9 4 5 1006.1 1006.0 0.0
02/02:30am 28.3 34.0 25.9 87 1.7 WNW 7 9 4 5 1006.1 1006.0 0.0
02/02:00am 28.5 33.7 25.7 85 2.0 NNW 9 13 5 7 1006.0 1005.9 0.0
02/01:30am 29.0 34.3 25.8 83 2.3 NNW 9 13 5 7 1006.6 1006.5 0.0
02/01:00am 29.3 33.9 25.9 82 2.4 N 13 17 7 9 1007.2 1007.1 0.0
02/12:30am 29.4 33.9 25.8 81 2.6 N 13 19 7 10 1007.6 1007.5 0.0
02/12:00am 29.5 33.6 25.7 80 2.7 NNE 15 19 8 10 1007.8 1007.7 0.0
 
Date/Time
CST
Temp
°C
App
Temp
°C
Dew
Point
°C
Rel
Hum
%
Delta-T
°C
Wind Press
QNH
hPa
Press
MSL
hPa
Rain since
9am
mm
Dir  Spd
km/h
Gust
km/h
Spd
kts
Gust
kts
01/11:30pm 29.7 34.3 25.9 80 2.7 NNE 13 17 7 9 1008.2 1008.1 0.0
01/11:00pm 29.8 33.5 25.8 79 2.8 NNE 17 20 9 11 1008.3 1008.2 0.0
01/10:30pm 29.8 33.3 25.5 78 3.0 N 17 20 9 11 1008.4 1008.3 0.0
01/10:00pm 30.0 33.7 25.7 78 3.0 N 17 24 9 13 1008.4 1008.3 0.0
01/09:30pm 30.0 33.1 25.7 78 3.1 N 20 26 11 14 1008.1 1008.0 0.0
01/09:00pm 30.2 33.6 25.9 78 3.1 N 19 24 10 13 1007.6 1007.5 0.0
01/08:30pm 30.2 33.3 25.7 77 3.2 N 20 24 11 13 1007.2 1007.1 0.0
01/08:00pm 30.5 34.1 25.6 75 3.5 N 17 20 9 11 1006.7 1006.6 0.0
01/07:30pm 30.6 33.6 24.7 71 4.1 N 17 20 9 11 1006.3 1006.2 0.0
01/07:00pm 31.1 33.8 24.7 68 4.5 NNE 19 24 10 13 1005.9 1005.8 0.0
01/06:30pm 31.5 34.1 24.6 67 4.9 N 19 24 10 13 1005.7 1005.6 0.0
01/06:00pm 31.7 33.4 24.6 66 5.0 NNE 24 30 13 16 1005.4 1005.3 0.0
01/05:30pm 32.0 33.7 25.3 67 4.8 NNE 26 35 14 19 1005.0 1004.9 0.0
01/05:00pm 32.7 35.4 25.0 64 5.4 NNE 20 32 11 17 1004.8 1004.7 0.0
01/04:30pm 33.6 35.8 23.9 57 6.8 NNE 19 24 10 13 1004.7 1004.6 0.0
01/04:00pm 34.5 38.1 25.0 57 6.7 NNE 15 20 8 11 1004.9 1004.8 0.0
01/03:30pm 34.2 37.5 24.5 57 6.8 NNE 15 20 8 11 1005.0 1004.9 0.0
01/03:00pm 34.4 37.4 23.4 52 7.7 NNE 13 19 7 10 1005.4 1005.3 0.0
01/02:30pm 34.0 37.6 24.3 57 6.8 NE 13 17 7 9 1005.9 1005.8 0.0
01/02:00pm 34.4 37.8 24.0 54 7.3 NE 13 15 7 8 1006.6 1006.5 0.0
01/01:30pm 33.3 37.0 23.3 55 6.9 NE 9 13 5 7 1007.0 1006.9 0.0
01/01:00pm 33.4 37.5 24.6 60 6.2 ENE 11 15 6 8 1007.5 1007.4 0.0
01/12:30pm 32.7 36.8 24.5 62 5.8 ENE 11 13 6 7 1008.0 1007.9 0.0
01/12:00pm 32.4 35.9 24.2 62 5.7 E 13 15 7 8 1008.5 1008.4 0.0
01/11:30am 32.5 36.6 24.5 62 5.6 ENE 11 15 6 8 1008.9 1008.8 0.0
01/11:00am 32.5 37.3 25.1 65 5.2 SE 9 13 5 7 1009.1 1009.0 0.0
01/10:30am 31.4 36.0 24.8 68 4.6 SE 9 11 5 6 1009.4 1009.3 0.0
01/10:00am 31.4 36.5 25.0 69 4.5 SE 7 11 4 6 1009.9 1009.8 0.0
01/09:30am 31.1 36.0 24.7 68 4.5 SE 7 11 4 6 1010.0 1009.9 0.0
01/09:00am 30.7 35.3 25.3 73 3.8 SSE 11 15 6 8 1010.0 1009.9 0.0
01/08:30am 30.5 35.1 26.0 77 3.2 S 13 15 7 8 1009.7 1009.6 0.0
01/08:00am 29.7 33.5 25.9 80 2.7 S 17 22 9 12 1009.4 1009.3 0.0
01/07:30am 29.9 34.1 25.9 79 2.8 S 15 20 8 11 1009.3 1009.2 0.0
01/07:00am 29.5 34.9 25.5 79 2.8 SW 7 9 4 5 1008.9 1008.8 0.0
01/06:30am 28.4 34.6 25.2 83 2.2 SSW 2 7 1 4 1008.4 1008.3 0.0
01/06:00am 27.4 33.9 25.0 87 1.7 CALM 0 0 0 0 1007.8 1007.7 0.0
01/05:30am 27.5 34.3 25.5 89 1.4 CALM 0 0 0 0 1007.4 1007.3 0.0
01/05:00am 27.5 34.1 25.3 88 1.5 CALM 0 0 0 0 1007.1 1007.0 0.0
01/04:30am 27.7 34.5 25.5 88 1.6 CALM 0 0 0 0 1006.8 1006.7 0.0
01/04:00am 27.8 34.6 25.6 88 1.6 CALM 0 0 0 0 1006.6 1006.5 0.0
01/03:30am 27.9 33.5 25.5 87 1.7 W 6 6 3 3 1006.3 1006.2 0.0
01/03:00am 28.2 33.8 25.8 87 1.7 W 7 9 4 5 1006.0 1005.9 0.0
01/02:30am 28.4 34.1 25.6 85 2.0 N 6 11 3 6 1006.1 1006.0 0.0
01/02:00am 28.4 33.8 25.4 84 2.1 NNW 7 11 4 6 1006.1 1006.0 0.0
01/01:30am 28.9 34.0 25.5 82 2.4 N 9 13 5 7 1006.3 1006.2 0.0
01/01:00am 29.2 34.3 25.6 81 2.5 N 9 13 5 7 1006.6 1006.5 0.0
01/12:30am 29.3 32.8 25.5 80 2.7 NNE 17 20 9 11 1006.8 1006.7 0.0
01/12:00am 29.4 33.6 26.0 82 2.4 NNE 15 20 8 11 1007.2 1007.1 0.0
 
Date/Time
CST
Temp
°C
App
Temp
°C
Dew
Point
°C
Rel
Hum
%
Delta-T
°C
Wind Press
QNH
hPa
Press
MSL
hPa
Rain since
9am
mm
Dir  Spd
km/h
Gust
km/h
Spd
kts
Gust
kts
30/11:30pm 29.5 34.1 25.9 81 2.6 NNE 13 20 7 11 1007.6 1007.5 0.0
30/11:00pm 29.5 33.3 25.9 81 2.6 NNE 17 20 9 11 1007.8 1007.7 0.0
30/10:30pm 29.7 33.5 25.9 80 2.7 NNE 17 24 9 13 1007.8 1007.7 0.0
30/10:00pm 29.7 32.8 25.7 79 2.8 NNE 20 26 11 14 1007.8 1007.7 0.0
30/09:30pm 29.8 32.4 25.5 78 3.0 NNE 22 28 12 15 1007.6 1007.5 0.0
30/09:00pm 30.0 32.2 25.5 77 3.2 NNE 24 28 13 15 1007.1 1007.0 0.0
30/08:30pm 29.9 32.3 25.2 76 3.3 NNE 22 28 12 15 1006.7 1006.6 0.0
30/08:00pm 30.0 32.6 24.9 74 3.6 NNE 20 26 11 14 1006.3 1006.2 0.0
30/07:30pm 30.2 32.7 24.8 73 3.8 NNE 20 26 11 14 1006.1 1006.0 0.0
30/07:00pm 30.3 32.4 24.7 72 3.9 NNE 22 28 12 15 1005.7 1005.6 0.0
30/06:30pm 30.7 33.6 25.1 72 4.0 NNE 19 26 10 14 1005.3 1005.2 0.0
30/06:00pm 31.2 32.9 24.6 68 4.6 NNE 24 28 13 15 1005.0 1004.9 0.0
30/05:30pm 31.3 32.8 24.4 66 4.8 NNE 24 30 13 16 1004.7 1004.6 0.0
30/05:00pm 32.1 34.6 25.4 67 4.8 NNE 22 30 12 16 1004.6 1004.5 0.0
30/04:30pm 32.2 33.6 24.8 65 5.2 NNE 26 35 14 19 1004.6 1004.5 0.0

Other formats

Comma delimited format used in spreadsheet applications
http://www.bom.gov.au/fwo/IDD60801/IDD60801.94248.axf

JavaScript Object Notation format (JSON) in row-major order
http://www.bom.gov.au/fwo/IDD60801/IDD60801.94248.json

Data quality

Most of these data are generated automatically and are frequently updated. Quality checks on data are not normally performed. It is possible for incorrect values to appear. Refer to information at About Latest Weather Observations and please check the disclaimer before using these data.